sensor_id;sensor_type;location;lat;lon;timestamp;temperature;humidity
16521;DHT22;8373;48.110;11.522;2023-06-05T00:14:51;21.00;55.00
16521;DHT22;8373;48.110;11.522;2023-06-05T00:45:04;20.70;56.20
16521;DHT22;8373;48.110;11.522;2023-06-05T00:48:11;20.60;56.60
16521;DHT22;8373;48.110;11.522;2023-06-05T00:57:59;20.60;57.20
16521;DHT22;8373;48.110;11.522;2023-06-05T01:25:32;20.40;59.10
16521;DHT22;8373;48.110;11.522;2023-06-05T01:32:32;20.40;59.70
16521;DHT22;8373;48.110;11.522;2023-06-05T01:35:57;20.30;59.70
16521;DHT22;8373;48.110;11.522;2023-06-05T02:04:00;20.00;62.20
16521;DHT22;8373;48.110;11.522;2023-06-05T02:10:08;19.90;62.80
16521;DHT22;8373;48.110;11.522;2023-06-05T02:16:35;19.90;63.10
16521;DHT22;8373;48.110;11.522;2023-06-05T02:23:22;19.80;63.60
16521;DHT22;8373;48.110;11.522;2023-06-05T02:26:25;19.70;63.90
16521;DHT22;8373;48.110;11.522;2023-06-05T02:29:19;19.60;64.00
16521;DHT22;8373;48.110;11.522;2023-06-05T02:32:40;19.60;64.50
16521;DHT22;8373;48.110;11.522;2023-06-05T02:35:30;19.40;64.80
16521;DHT22;8373;48.110;11.522;2023-06-05T02:41:54;19.30;65.30
16521;DHT22;8373;48.110;11.522;2023-06-05T02:45:04;19.30;65.60
16521;DHT22;8373;48.110;11.522;2023-06-05T02:47:50;19.30;65.70
16521;DHT22;8373;48.110;11.522;2023-06-05T02:50:33;19.40;65.80
16521;DHT22;8373;48.110;11.522;2023-06-05T02:53:01;19.40;65.70
16521;DHT22;8373;48.110;11.522;2023-06-05T03:23:14;19.30;67.20
16521;DHT22;8373;48.110;11.522;2023-06-05T03:26:09;19.40;67.00
16521;DHT22;8373;48.110;11.522;2023-06-05T03:32:37;19.40;66.70
16521;DHT22;8373;48.110;11.522;2023-06-05T03:53:48;19.30;67.30
16521;DHT22;8373;48.110;11.522;2023-06-05T04:00:44;19.30;67.60
16521;DHT22;8373;48.110;11.522;2023-06-05T04:03:47;19.40;67.40
16521;DHT22;8373;48.110;11.522;2023-06-05T04:06:20;19.40;67.20
16521;DHT22;8373;48.110;11.522;2023-06-05T04:08:55;19.40;67.10
16521;DHT22;8373;48.110;11.522;2023-06-05T04:11:29;19.40;67.00
16521;DHT22;8373;48.110;11.522;2023-06-05T04:14:01;19.50;67.10
16521;DHT22;8373;48.110;11.522;2023-06-05T04:16:33;19.50;67.00
16521;DHT22;8373;48.110;11.522;2023-06-05T04:19:05;19.50;66.80
16521;DHT22;8373;48.110;11.522;2023-06-05T04:21:35;19.50;66.90
16521;DHT22;8373;48.110;11.522;2023-06-05T04:27:58;19.60;66.80
16521;DHT22;8373;48.110;11.522;2023-06-05T04:30:46;19.60;66.90
16521;DHT22;8373;48.110;11.522;2023-06-05T04:34:14;19.60;66.70
16521;DHT22;8373;48.110;11.522;2023-06-05T04:40:51;19.60;66.90
16521;DHT22;8373;48.110;11.522;2023-06-05T04:47:19;19.60;66.80
16521;DHT22;8373;48.110;11.522;2023-06-05T04:50:45;19.60;66.70
16521;DHT22;8373;48.110;11.522;2023-06-05T05:01:56;19.50;67.00
16521;DHT22;8373;48.110;11.522;2023-06-05T05:04:54;19.40;67.00
16521;DHT22;8373;48.110;11.522;2023-06-05T05:08:09;19.40;67.20
16521;DHT22;8373;48.110;11.522;2023-06-05T05:18:23;19.50;67.30
16521;DHT22;8373;48.110;11.522;2023-06-05T05:21:31;19.50;67.20
16521;DHT22;8373;48.110;11.522;2023-06-05T05:24:02;19.50;67.40
16521;DHT22;8373;48.110;11.522;2023-06-05T05:26:33;19.50;67.50
16521;DHT22;8373;48.110;11.522;2023-06-05T05:29:03;19.60;67.40
16521;DHT22;8373;48.110;11.522;2023-06-05T05:31:40;19.60;67.40
16521;DHT22;8373;48.110;11.522;2023-06-05T05:34:21;19.60;67.10
16521;DHT22;8373;48.110;11.522;2023-06-05T05:37:09;19.70;67.10
16521;DHT22;8373;48.110;11.522;2023-06-05T05:39:45;19.70;67.00
16521;DHT22;8373;48.110;11.522;2023-06-05T05:42:19;19.70;67.00
16521;DHT22;8373;48.110;11.522;2023-06-05T05:44:49;19.80;67.80
16521;DHT22;8373;48.110;11.522;2023-06-05T05:47:48;19.90;67.10
16521;DHT22;8373;48.110;11.522;2023-06-05T05:50:41;19.90;66.70
16521;DHT22;8373;48.110;11.522;2023-06-05T05:53:21;20.00;66.80
16521;DHT22;8373;48.110;11.522;2023-06-05T05:55:51;20.00;66.40
16521;DHT22;8373;48.110;11.522;2023-06-05T05:58:20;20.10;66.50
16521;DHT22;8373;48.110;11.522;2023-06-05T06:00:49;20.10;66.40
16521;DHT22;8373;48.110;11.522;2023-06-05T06:03:19;20.20;66.60
16521;DHT22;8373;48.110;11.522;2023-06-05T06:05:49;20.10;66.10
16521;DHT22;8373;48.110;11.522;2023-06-05T06:08:17;20.20;66.30
16521;DHT22;8373;48.110;11.522;2023-06-05T06:10:57;20.20;66.20
16521;DHT22;8373;48.110;11.522;2023-06-05T06:13:43;20.20;66.10
16521;DHT22;8373;48.110;11.522;2023-06-05T06:16:53;20.10;66.30
16521;DHT22;8373;48.110;11.522;2023-06-05T06:19:46;20.10;66.80
16521;DHT22;8373;48.110;11.522;2023-06-05T06:22:38;20.10;66.60
16521;DHT22;8373;48.110;11.522;2023-06-05T06:25:56;20.10;66.70
16521;DHT22;8373;48.110;11.522;2023-06-05T06:32:35;20.20;66.60
16521;DHT22;8373;48.110;11.522;2023-06-05T06:35:26;20.20;66.40
16521;DHT22;8373;48.110;11.522;2023-06-05T06:38:26;20.20;66.60
16521;DHT22;8373;48.110;11.522;2023-06-05T06:41:08;20.20;66.60
16521;DHT22;8373;48.110;11.522;2023-06-05T06:43:55;20.30;66.30
16521;DHT22;8373;48.110;11.522;2023-06-05T06:46:37;20.30;66.30
16521;DHT22;8373;48.110;11.522;2023-06-05T06:53:13;20.40;66.60
16521;DHT22;8373;48.110;11.522;2023-06-05T06:56:44;20.40;66.60
16521;DHT22;8373;48.110;11.522;2023-06-05T06:59:27;20.40;66.30
16521;DHT22;8373;48.110;11.522;2023-06-05T07:02:39;20.40;65.80
16521;DHT22;8373;48.110;11.522;2023-06-05T07:05:54;20.50;65.90
16521;DHT22;8373;48.110;11.522;2023-06-05T07:12:28;20.60;65.50
16521;DHT22;8373;48.110;11.522;2023-06-05T07:15:29;20.60;65.70
16521;DHT22;8373;48.110;11.522;2023-06-05T07:18:28;20.70;65.60
16521;DHT22;8373;48.110;11.522;2023-06-05T07:21:09;20.80;65.70
16521;DHT22;8373;48.110;11.522;2023-06-05T07:23:53;20.90;65.40
16521;DHT22;8373;48.110;11.522;2023-06-05T07:26:26;21.10;64.40
16521;DHT22;8373;48.110;11.522;2023-06-05T07:29:09;21.10;64.20
16521;DHT22;8373;48.110;11.522;2023-06-05T07:32:32;21.30;64.20
16521;DHT22;8373;48.110;11.522;2023-06-05T07:39:00;21.70;63.20
16521;DHT22;8373;48.110;11.522;2023-06-05T07:41:33;21.80;62.20
16521;DHT22;8373;48.110;11.522;2023-06-05T07:44:29;21.80;61.60
16521;DHT22;8373;48.110;11.522;2023-06-05T07:47:40;22.00;61.80
16521;DHT22;8373;48.110;11.522;2023-06-05T07:50:59;22.10;61.90
16521;DHT22;8373;48.110;11.522;2023-06-05T07:54:31;22.40;62.10
16521;DHT22;8373;48.110;11.522;2023-06-05T07:57:28;22.50;61.20
16521;DHT22;8373;48.110;11.522;2023-06-05T08:00:36;22.70;60.00
16521;DHT22;8373;48.110;11.522;2023-06-05T08:03:30;22.90;59.50
16521;DHT22;8373;48.110;11.522;2023-06-05T08:06:19;23.00;59.00
16521;DHT22;8373;48.110;11.522;2023-06-05T08:09:17;23.10;58.60
16521;DHT22;8373;48.110;11.522;2023-06-05T08:22:20;23.20;58.30
16521;DHT22;8373;48.110;11.522;2023-06-05T08:25:32;23.20;58.40
16521;DHT22;8373;48.110;11.522;2023-06-05T08:31:54;23.50;57.80
16521;DHT22;8373;48.110;11.522;2023-06-05T08:34:55;23.50;57.30
16521;DHT22;8373;48.110;11.522;2023-06-05T08:37:55;23.60;56.70
16521;DHT22;8373;48.110;11.522;2023-06-05T08:40:44;23.60;56.70
16521;DHT22;8373;48.110;11.522;2023-06-05T08:43:55;23.50;56.70
16521;DHT22;8373;48.110;11.522;2023-06-05T08:47:05;23.60;56.50
16521;DHT22;8373;48.110;11.522;2023-06-05T08:49:58;23.60;56.40
16521;DHT22;8373;48.110;11.522;2023-06-05T08:52:54;23.70;57.20
16521;DHT22;8373;48.110;11.522;2023-06-05T08:55:45;23.80;56.20
16521;DHT22;8373;48.110;11.522;2023-06-05T08:58:32;23.80;55.20
16521;DHT22;8373;48.110;11.522;2023-06-05T09:01:24;23.80;55.30
16521;DHT22;8373;48.110;11.522;2023-06-05T09:15:08;23.80;55.10
16521;DHT22;8373;48.110;11.522;2023-06-05T09:18:17;23.90;55.30
16521;DHT22;8373;48.110;11.522;2023-06-05T09:21:46;24.00;55.80
16521;DHT22;8373;48.110;11.522;2023-06-05T09:25:04;24.00;54.50
16521;DHT22;8373;48.110;11.522;2023-06-05T09:31:48;24.00;53.10
16521;DHT22;8373;48.110;11.522;2023-06-05T09:35:40;24.00;52.30
16521;DHT22;8373;48.110;11.522;2023-06-05T09:38:41;24.20;52.50
16521;DHT22;8373;48.110;11.522;2023-06-05T09:41:35;24.30;52.10
16521;DHT22;8373;48.110;11.522;2023-06-05T09:44:38;24.40;52.20
16521;DHT22;8373;48.110;11.522;2023-06-05T09:47:29;24.40;52.50
16521;DHT22;8373;48.110;11.522;2023-06-05T09:57:16;24.30;52.50
16521;DHT22;8373;48.110;11.522;2023-06-05T10:00:15;24.40;52.60
16521;DHT22;8373;48.110;11.522;2023-06-05T10:02:50;24.40;52.00
16521;DHT22;8373;48.110;11.522;2023-06-05T10:05:22;24.40;51.50
16521;DHT22;8373;48.110;11.522;2023-06-05T10:07:59;24.40;51.40
16521;DHT22;8373;48.110;11.522;2023-06-05T10:10:47;24.40;51.00
16521;DHT22;8373;48.110;11.522;2023-06-05T10:13:36;24.40;50.80
16521;DHT22;8373;48.110;11.522;2023-06-05T10:16:25;24.40;50.30
16521;DHT22;8373;48.110;11.522;2023-06-05T10:19:12;24.50;50.30
16521;DHT22;8373;48.110;11.522;2023-06-05T10:22:02;24.50;48.90
16521;DHT22;8373;48.110;11.522;2023-06-05T10:24:48;24.40;49.20
16521;DHT22;8373;48.110;11.522;2023-06-05T10:28:15;24.40;50.00
16521;DHT22;8373;48.110;11.522;2023-06-05T10:34:55;24.60;50.00
16521;DHT22;8373;48.110;11.522;2023-06-05T10:38:14;24.70;48.50
16521;DHT22;8373;48.110;11.522;2023-06-05T10:42:00;24.80;47.30
16521;DHT22;8373;48.110;11.522;2023-06-05T10:48:31;24.90;46.90
16521;DHT22;8373;48.110;11.522;2023-06-05T10:51:41;24.90;43.90
16521;DHT22;8373;48.110;11.522;2023-06-05T10:57:03;24.90;46.70
16521;DHT22;8373;48.110;11.522;2023-06-05T10:59:38;24.90;46.50
16521;DHT22;8373;48.110;11.522;2023-06-05T11:02:24;25.00;45.90
16521;DHT22;8373;48.110;11.522;2023-06-05T11:05:14;25.10;46.50
16521;DHT22;8373;48.110;11.522;2023-06-05T11:07:43;25.30;47.10
16521;DHT22;8373;48.110;11.522;2023-06-05T11:10:15;25.40;45.10
16521;DHT22;8373;48.110;11.522;2023-06-05T11:13:04;25.40;45.30
16521;DHT22;8373;48.110;11.522;2023-06-05T11:15:40;25.40;46.60
16521;DHT22;8373;48.110;11.522;2023-06-05T11:18:39;25.40;45.80
16521;DHT22;8373;48.110;11.522;2023-06-05T11:21:16;25.50;46.10
16521;DHT22;8373;48.110;11.522;2023-06-05T11:24:13;25.50;46.40
16521;DHT22;8373;48.110;11.522;2023-06-05T11:26:51;25.50;45.20
16521;DHT22;8373;48.110;11.522;2023-06-05T11:29:29;25.40;43.10
16521;DHT22;8373;48.110;11.522;2023-06-05T11:32:15;25.30;44.20
16521;DHT22;8373;48.110;11.522;2023-06-05T11:34:47;25.30;44.70
16521;DHT22;8373;48.110;11.522;2023-06-05T11:37:21;25.30;45.90
16521;DHT22;8373;48.110;11.522;2023-06-05T11:39:52;25.30;46.90
16521;DHT22;8373;48.110;11.522;2023-06-05T11:42:25;25.30;46.50
16521;DHT22;8373;48.110;11.522;2023-06-05T11:44:59;25.20;45.90
16521;DHT22;8373;48.110;11.522;2023-06-05T11:47:30;25.20;45.40
16521;DHT22;8373;48.110;11.522;2023-06-05T11:50:08;25.20;47.30
16521;DHT22;8373;48.110;11.522;2023-06-05T11:52:39;25.10;48.20
16521;DHT22;8373;48.110;11.522;2023-06-05T11:55:14;25.20;46.60
16521;DHT22;8373;48.110;11.522;2023-06-05T11:57:49;25.20;45.00
16521;DHT22;8373;48.110;11.522;2023-06-05T12:00:23;25.30;46.80
16521;DHT22;8373;48.110;11.522;2023-06-05T12:02:54;25.40;47.50
16521;DHT22;8373;48.110;11.522;2023-06-05T12:05:28;25.50;48.10
16521;DHT22;8373;48.110;11.522;2023-06-05T12:08:34;25.60;47.50
16521;DHT22;8373;48.110;11.522;2023-06-05T12:11:28;25.60;47.10
16521;DHT22;8373;48.110;11.522;2023-06-05T12:14:03;25.60;47.20
16521;DHT22;8373;48.110;11.522;2023-06-05T12:16:35;25.50;48.00
16521;DHT22;8373;48.110;11.522;2023-06-05T12:19:28;25.50;48.10
16521;DHT22;8373;48.110;11.522;2023-06-05T12:22:08;25.60;47.80
16521;DHT22;8373;48.110;11.522;2023-06-05T12:24:52;25.60;48.00
16521;DHT22;8373;48.110;11.522;2023-06-05T12:27:32;25.60;48.50
16521;DHT22;8373;48.110;11.522;2023-06-05T12:30:10;25.80;49.10
16521;DHT22;8373;48.110;11.522;2023-06-05T12:32:59;25.80;48.20
16521;DHT22;8373;48.110;11.522;2023-06-05T12:35:39;25.80;47.90
16521;DHT22;8373;48.110;11.522;2023-06-05T12:38:16;25.70;46.70
16521;DHT22;8373;48.110;11.522;2023-06-05T12:40:59;25.60;45.60
16521;DHT22;8373;48.110;11.522;2023-06-05T12:43:40;25.40;46.70
16521;DHT22;8373;48.110;11.522;2023-06-05T12:59:56;25.00;49.30
16521;DHT22;8373;48.110;11.522;2023-06-05T13:02:38;25.00;48.90
16521;DHT22;8373;48.110;11.522;2023-06-05T13:05:16;25.00;48.80
16521;DHT22;8373;48.110;11.522;2023-06-05T13:08:07;25.00;49.00
16521;DHT22;8373;48.110;11.522;2023-06-05T13:11:46;25.10;49.20
16521;DHT22;8373;48.110;11.522;2023-06-05T13:15:35;25.00;48.60
16521;DHT22;8373;48.110;11.522;2023-06-05T13:22:11;24.80;50.40
16521;DHT22;8373;48.110;11.522;2023-06-05T13:28:48;24.30;52.50
16521;DHT22;8373;48.110;11.522;2023-06-05T13:49:21;24.30;53.00
16521;DHT22;8373;48.110;11.522;2023-06-05T13:52:28;24.30;53.70
16521;DHT22;8373;48.110;11.522;2023-06-05T13:55:23;24.30;53.40
16521;DHT22;8373;48.110;11.522;2023-06-05T13:58:26;24.30;53.00
16521;DHT22;8373;48.110;11.522;2023-06-05T14:01:41;24.40;53.00
16521;DHT22;8373;48.110;11.522;2023-06-05T14:04:46;24.40;52.50
16521;DHT22;8373;48.110;11.522;2023-06-05T14:07:21;24.40;52.60
16521;DHT22;8373;48.110;11.522;2023-06-05T14:09:59;24.40;52.50
16521;DHT22;8373;48.110;11.522;2023-06-05T14:12:52;24.30;52.40
16521;DHT22;8373;48.110;11.522;2023-06-05T14:16:15;24.30;52.70
16521;DHT22;8373;48.110;11.522;2023-06-05T14:19:17;24.40;53.00
16521;DHT22;8373;48.110;11.522;2023-06-05T14:22:09;24.40;52.30
16521;DHT22;8373;48.110;11.522;2023-06-05T14:24:51;24.40;52.40
16521;DHT22;8373;48.110;11.522;2023-06-05T14:27:46;24.30;52.30
16521;DHT22;8373;48.110;11.522;2023-06-05T14:30:26;24.30;51.80
16521;DHT22;8373;48.110;11.522;2023-06-05T14:33:03;24.20;51.70
16521;DHT22;8373;48.110;11.522;2023-06-05T14:35:57;24.30;51.70
16521;DHT22;8373;48.110;11.522;2023-06-05T14:39:13;24.40;51.90
16521;DHT22;8373;48.110;11.522;2023-06-05T14:42:02;24.40;51.70
16521;DHT22;8373;48.110;11.522;2023-06-05T14:44:52;24.50;51.50
16521;DHT22;8373;48.110;11.522;2023-06-05T14:48:00;24.60;51.80
16521;DHT22;8373;48.110;11.522;2023-06-05T14:54:52;24.50;51.50
16521;DHT22;8373;48.110;11.522;2023-06-05T15:01:33;24.20;52.10
16521;DHT22;8373;48.110;11.522;2023-06-05T15:08:22;24.10;51.60
16521;DHT22;8373;48.110;11.522;2023-06-05T15:14:29;24.20;51.90
16521;DHT22;8373;48.110;11.522;2023-06-05T15:17:13;24.30;52.30
16521;DHT22;8373;48.110;11.522;2023-06-05T15:20:33;24.30;53.00
16521;DHT22;8373;48.110;11.522;2023-06-05T15:23:52;24.40;53.50
16521;DHT22;8373;48.110;11.522;2023-06-05T15:27:19;24.50;53.10
16521;DHT22;8373;48.110;11.522;2023-06-05T15:34:05;24.40;52.00
16521;DHT22;8373;48.110;11.522;2023-06-05T15:37:08;24.30;52.10
16521;DHT22;8373;48.110;11.522;2023-06-05T15:40:06;24.10;52.80
16521;DHT22;8373;48.110;11.522;2023-06-05T15:43:27;24.00;53.40
16521;DHT22;8373;48.110;11.522;2023-06-05T15:46:34;23.90;53.80
16521;DHT22;8373;48.110;11.522;2023-06-05T16:10:26;23.20;56.60
16521;DHT22;8373;48.110;11.522;2023-06-05T16:13:05;23.20;56.90
16521;DHT22;8373;48.110;11.522;2023-06-05T16:15:46;23.10;57.20
16521;DHT22;8373;48.110;11.522;2023-06-05T16:18:31;23.20;57.40
16521;DHT22;8373;48.110;11.522;2023-06-05T16:21:14;23.20;57.00
16521;DHT22;8373;48.110;11.522;2023-06-05T16:23:47;23.20;57.00
16521;DHT22;8373;48.110;11.522;2023-06-05T16:26:21;23.20;57.20
16521;DHT22;8373;48.110;11.522;2023-06-05T16:29:00;23.10;57.60
16521;DHT22;8373;48.110;11.522;2023-06-05T16:31:37;23.10;57.90
16521;DHT22;8373;48.110;11.522;2023-06-05T16:34:18;23.10;58.00
16521;DHT22;8373;48.110;11.522;2023-06-05T16:37:04;23.00;58.20
16521;DHT22;8373;48.110;11.522;2023-06-05T16:39:44;22.80;58.40
16521;DHT22;8373;48.110;11.522;2023-06-05T16:42:29;22.70;58.90
16521;DHT22;8373;48.110;11.522;2023-06-05T16:45:08;22.60;59.10
16521;DHT22;8373;48.110;11.522;2023-06-05T16:47:56;22.60;59.10
16521;DHT22;8373;48.110;11.522;2023-06-05T16:50:34;22.60;58.70
16521;DHT22;8373;48.110;11.522;2023-06-05T16:53:19;22.60;58.80
16521;DHT22;8373;48.110;11.522;2023-06-05T16:56:15;22.60;58.60
16521;DHT22;8373;48.110;11.522;2023-06-05T16:59:10;22.40;58.50
16521;DHT22;8373;48.110;11.522;2023-06-05T17:02:14;22.20;59.30
16521;DHT22;8373;48.110;11.522;2023-06-05T17:05:29;22.10;59.80
16521;DHT22;8373;48.110;11.522;2023-06-05T17:08:31;22.00;59.90
16521;DHT22;8373;48.110;11.522;2023-06-05T17:11:13;21.90;60.60
16521;DHT22;8373;48.110;11.522;2023-06-05T17:14:17;21.90;60.60
16521;DHT22;8373;48.110;11.522;2023-06-05T17:17:11;21.90;60.70
16521;DHT22;8373;48.110;11.522;2023-06-05T17:20:05;21.90;60.40
16521;DHT22;8373;48.110;11.522;2023-06-05T17:23:03;21.80;60.40
16521;DHT22;8373;48.110;11.522;2023-06-05T17:25:42;21.80;60.70
16521;DHT22;8373;48.110;11.522;2023-06-05T17:28:41;21.80;60.80
16521;DHT22;8373;48.110;11.522;2023-06-05T17:32:06;21.90;60.80
16521;DHT22;8373;48.110;11.522;2023-06-05T17:35:12;21.80;60.60
16521;DHT22;8373;48.110;11.522;2023-06-05T17:38:20;21.80;60.90
16521;DHT22;8373;48.110;11.522;2023-06-05T17:44:35;21.80;60.60
16521;DHT22;8373;48.110;11.522;2023-06-05T17:47:49;21.80;60.30
16521;DHT22;8373;48.110;11.522;2023-06-05T17:50:32;21.80;60.10
16521;DHT22;8373;48.110;11.522;2023-06-05T18:00:35;21.70;60.00
16521;DHT22;8373;48.110;11.522;2023-06-05T18:10:14;21.50;60.00
16521;DHT22;8373;48.110;11.522;2023-06-05T18:13:00;21.50;60.20
16521;DHT22;8373;48.110;11.522;2023-06-05T18:15:48;21.50;60.50
16521;DHT22;8373;48.110;11.522;2023-06-05T18:18:19;21.50;60.60
16521;DHT22;8373;48.110;11.522;2023-06-05T18:20:50;21.50;60.80
16521;DHT22;8373;48.110;11.522;2023-06-05T18:23:19;21.50;60.80
16521;DHT22;8373;48.110;11.522;2023-06-05T18:25:52;21.50;60.90
16521;DHT22;8373;48.110;11.522;2023-06-05T18:28:23;21.50;61.20
16521;DHT22;8373;48.110;11.522;2023-06-05T18:30:52;21.50;61.50
16521;DHT22;8373;48.110;11.522;2023-06-05T18:33:23;21.50;61.40
16521;DHT22;8373;48.110;11.522;2023-06-05T18:36:24;21.60;61.30
16521;DHT22;8373;48.110;11.522;2023-06-05T18:39:27;21.60;61.30
16521;DHT22;8373;48.110;11.522;2023-06-05T18:42:46;21.50;61.30
16521;DHT22;8373;48.110;11.522;2023-06-05T18:45:39;21.50;61.70
16521;DHT22;8373;48.110;11.522;2023-06-05T18:48:53;21.50;61.70
16521;DHT22;8373;48.110;11.522;2023-06-05T18:51:44;21.50;61.90
16521;DHT22;8373;48.110;11.522;2023-06-05T18:54:27;21.50;61.70
16521;DHT22;8373;48.110;11.522;2023-06-05T18:57:18;21.40;61.90
16521;DHT22;8373;48.110;11.522;2023-06-05T18:59:50;21.50;62.10
16521;DHT22;8373;48.110;11.522;2023-06-05T19:02:21;21.50;61.80
16521;DHT22;8373;48.110;11.522;2023-06-05T19:04:51;21.50;61.80
16521;DHT22;8373;48.110;11.522;2023-06-05T19:07:20;21.50;61.70
16521;DHT22;8373;48.110;11.522;2023-06-05T19:09:50;21.50;61.70
16521;DHT22;8373;48.110;11.522;2023-06-05T19:12:19;21.50;61.70
16521;DHT22;8373;48.110;11.522;2023-06-05T19:14:52;21.50;61.70
16521;DHT22;8373;48.110;11.522;2023-06-05T19:17:21;21.40;61.80
16521;DHT22;8373;48.110;11.522;2023-06-05T19:19:50;21.40;61.90
16521;DHT22;8373;48.110;11.522;2023-06-05T19:22:21;21.40;61.60
16521;DHT22;8373;48.110;11.522;2023-06-05T19:24:50;21.40;62.00
16521;DHT22;8373;48.110;11.522;2023-06-05T19:27:21;21.40;62.20
16521;DHT22;8373;48.110;11.522;2023-06-05T19:29:54;21.40;62.30
16521;DHT22;8373;48.110;11.522;2023-06-05T19:32:24;21.40;62.30
16521;DHT22;8373;48.110;11.522;2023-06-05T19:34:54;21.40;62.20
16521;DHT22;8373;48.110;11.522;2023-06-05T19:37:25;21.40;62.20
16521;DHT22;8373;48.110;11.522;2023-06-05T19:39:55;21.40;62.20
16521;DHT22;8373;48.110;11.522;2023-06-05T19:42:26;21.40;62.30
16521;DHT22;8373;48.110;11.522;2023-06-05T19:44:59;21.40;62.40
16521;DHT22;8373;48.110;11.522;2023-06-05T19:47:29;21.40;62.40
16521;DHT22;8373;48.110;11.522;2023-06-05T19:50:07;21.40;62.60
16521;DHT22;8373;48.110;11.522;2023-06-05T19:52:54;21.40;62.80
16521;DHT22;8373;48.110;11.522;2023-06-05T19:55:27;21.40;63.00
16521;DHT22;8373;48.110;11.522;2023-06-05T19:58:00;21.50;63.10
16521;DHT22;8373;48.110;11.522;2023-06-05T20:00:33;21.50;63.20
16521;DHT22;8373;48.110;11.522;2023-06-05T20:03:08;21.50;63.20
16521;DHT22;8373;48.110;11.522;2023-06-05T20:05:44;21.40;63.40
16521;DHT22;8373;48.110;11.522;2023-06-05T20:08:15;21.30;64.20
16521;DHT22;8373;48.110;11.522;2023-06-05T20:10:46;21.20;64.90
16521;DHT22;8373;48.110;11.522;2023-06-05T20:13:18;21.10;65.70
16521;DHT22;8373;48.110;11.522;2023-06-05T20:19:12;20.90;66.50
16521;DHT22;8373;48.110;11.522;2023-06-05T20:21:46;20.80;67.20
16521;DHT22;8373;48.110;11.522;2023-06-05T20:24:16;20.70;67.40
16521;DHT22;8373;48.110;11.522;2023-06-05T20:26:47;20.70;67.70
16521;DHT22;8373;48.110;11.522;2023-06-05T20:29:20;20.70;68.00
16521;DHT22;8373;48.110;11.522;2023-06-05T20:31:57;20.70;68.10
16521;DHT22;8373;48.110;11.522;2023-06-05T20:34:41;20.70;68.00
16521;DHT22;8373;48.110;11.522;2023-06-05T20:37:19;20.70;68.10
16521;DHT22;8373;48.110;11.522;2023-06-05T20:39:58;20.70;68.20
16521;DHT22;8373;48.110;11.522;2023-06-05T20:42:35;20.70;68.30
16521;DHT22;8373;48.110;11.522;2023-06-05T20:45:05;20.80;68.20
16521;DHT22;8373;48.110;11.522;2023-06-05T20:47:36;20.80;68.20
16521;DHT22;8373;48.110;11.522;2023-06-05T20:50:10;20.80;68.20
16521;DHT22;8373;48.110;11.522;2023-06-05T20:52:40;20.80;68.20
16521;DHT22;8373;48.110;11.522;2023-06-05T20:55:09;20.80;68.10
16521;DHT22;8373;48.110;11.522;2023-06-05T20:57:38;20.80;67.80
16521;DHT22;8373;48.110;11.522;2023-06-05T21:00:08;20.80;68.00
16521;DHT22;8373;48.110;11.522;2023-06-05T21:02:37;20.80;68.10
16521;DHT22;8373;48.110;11.522;2023-06-05T21:05:05;20.80;68.10
16521;DHT22;8373;48.110;11.522;2023-06-05T21:07:34;20.90;68.10
16521;DHT22;8373;48.110;11.522;2023-06-05T21:10:03;20.90;68.00
16521;DHT22;8373;48.110;11.522;2023-06-05T21:12:33;20.80;68.00
16521;DHT22;8373;48.110;11.522;2023-06-05T21:15:03;20.80;68.20
16521;DHT22;8373;48.110;11.522;2023-06-05T21:17:36;20.80;68.30
16521;DHT22;8373;48.110;11.522;2023-06-05T21:20:08;20.70;68.40
16521;DHT22;8373;48.110;11.522;2023-06-05T21:22:49;20.70;68.80
16521;DHT22;8373;48.110;11.522;2023-06-05T21:25:25;20.60;69.10
16521;DHT22;8373;48.110;11.522;2023-06-05T21:27:53;20.50;69.20
16521;DHT22;8373;48.110;11.522;2023-06-05T21:30:21;20.40;69.40
16521;DHT22;8373;48.110;11.522;2023-06-05T21:32:57;20.40;69.50
16521;DHT22;8373;48.110;11.522;2023-06-05T21:35:36;20.40;69.70
16521;DHT22;8373;48.110;11.522;2023-06-05T21:38:20;20.30;69.60
16521;DHT22;8373;48.110;11.522;2023-06-05T21:40:54;20.20;69.50
16521;DHT22;8373;48.110;11.522;2023-06-05T21:43:24;20.20;69.30
16521;DHT22;8373;48.110;11.522;2023-06-05T21:45:55;20.10;69.40
16521;DHT22;8373;48.110;11.522;2023-06-05T21:48:30;20.00;69.50
16521;DHT22;8373;48.110;11.522;2023-06-05T21:51:03;20.00;70.00
16521;DHT22;8373;48.110;11.522;2023-06-05T21:53:35;20.00;70.50
16521;DHT22;8373;48.110;11.522;2023-06-05T21:56:06;20.00;70.70
16521;DHT22;8373;48.110;11.522;2023-06-05T21:58:41;20.00;71.10
16521;DHT22;8373;48.110;11.522;2023-06-05T22:01:18;19.90;71.10
16521;DHT22;8373;48.110;11.522;2023-06-05T22:03:53;19.90;71.40
16521;DHT22;8373;48.110;11.522;2023-06-05T22:06:32;19.80;71.40
16521;DHT22;8373;48.110;11.522;2023-06-05T22:09:11;19.80;71.60
16521;DHT22;8373;48.110;11.522;2023-06-05T22:11:52;19.80;71.50
16521;DHT22;8373;48.110;11.522;2023-06-05T22:14:22;19.70;71.60
16521;DHT22;8373;48.110;11.522;2023-06-05T22:17:02;19.70;71.80
16521;DHT22;8373;48.110;11.522;2023-06-05T22:19:43;19.60;71.60
16521;DHT22;8373;48.110;11.522;2023-06-05T22:22:23;19.60;71.80
16521;DHT22;8373;48.110;11.522;2023-06-05T22:25:06;19.60;71.90
16521;DHT22;8373;48.110;11.522;2023-06-05T22:27:43;19.60;72.00
16521;DHT22;8373;48.110;11.522;2023-06-05T22:30:21;19.60;72.10
16521;DHT22;8373;48.110;11.522;2023-06-05T22:32:58;19.70;71.90
16521;DHT22;8373;48.110;11.522;2023-06-05T22:35:36;19.70;71.80
16521;DHT22;8373;48.110;11.522;2023-06-05T22:38:18;19.80;71.60
16521;DHT22;8373;48.110;11.522;2023-06-05T22:41:15;19.80;71.40
16521;DHT22;8373;48.110;11.522;2023-06-05T22:43:55;19.90;71.40
16521;DHT22;8373;48.110;11.522;2023-06-05T22:46:35;20.00;71.30
16521;DHT22;8373;48.110;11.522;2023-06-05T22:49:16;20.00;70.80
16521;DHT22;8373;48.110;11.522;2023-06-05T22:51:55;20.00;70.80
16521;DHT22;8373;48.110;11.522;2023-06-05T22:54:32;20.10;70.80
16521;DHT22;8373;48.110;11.522;2023-06-05T22:57:18;20.10;70.70
16521;DHT22;8373;48.110;11.522;2023-06-05T23:00:01;20.20;70.60
16521;DHT22;8373;48.110;11.522;2023-06-05T23:02:45;20.20;70.60
16521;DHT22;8373;48.110;11.522;2023-06-05T23:05:22;20.10;70.90
16521;DHT22;8373;48.110;11.522;2023-06-05T23:08:04;20.10;71.30
16521;DHT22;8373;48.110;11.522;2023-06-05T23:10:41;20.10;71.50
16521;DHT22;8373;48.110;11.522;2023-06-05T23:13:24;20.20;71.80
16521;DHT22;8373;48.110;11.522;2023-06-05T23:16:09;20.20;71.70
16521;DHT22;8373;48.110;11.522;2023-06-05T23:18:52;20.20;71.90
16521;DHT22;8373;48.110;11.522;2023-06-05T23:21:29;20.10;72.60
16521;DHT22;8373;48.110;11.522;2023-06-05T23:24:01;20.10;72.70
16521;DHT22;8373;48.110;11.522;2023-06-05T23:26:35;20.10;72.90
16521;DHT22;8373;48.110;11.522;2023-06-05T23:29:10;20.10;73.00